Time;durP1;ratioP1;P1;durP2;ratioP2;P2;SDS_P1;SDS_P2;PMS_P1;PMS_P2;Temp;Humidity;BMP_temperature;BMP_pressure;BME280_temperature;BME280_humidity;BME280_pressure;Samples;Min_cycle;Max_cycle;Signal;HPM_P1;HPM_P2
2022/05/20 00:00:05;;;;;;;7.35;4.75;;;15.00;99.90;;;;;;5034300;28;20043;-74
2022/05/20 00:02:32;;;;;;;6.13;4.88;;;15.40;99.90;;;;;;5032976;28;20045;-73
2022/05/20 00:04:59;;;;;;;9.68;4.93;;;15.10;99.90;;;;;;5048165;28;20048;-74
2022/05/20 00:07:25;;;;;;;5.88;5.03;;;15.00;99.90;;;;;;5032482;28;20072;-74
2022/05/20 00:09:51;;;;;;;9.20;5.32;;;15.30;99.90;;;;;;5015527;28;20137;-74
2022/05/20 00:12:18;;;;;;;6.57;5.45;;;15.50;99.90;;;;;;5036783;28;20148;-74
2022/05/20 00:14:44;;;;;;;8.50;5.72;;;15.10;99.90;;;;;;5037738;28;20084;-75
2022/05/20 00:17:09;;;;;;;8.40;5.53;;;15.30;99.90;;;;;;5049951;28;20084;-74
2022/05/20 00:19:35;;;;;;;7.38;5.78;;;15.40;99.90;;;;;;5050618;28;20423;-74
2022/05/20 00:22:01;;;;;;;11.50;6.55;;;15.20;99.90;;;;;;5032189;28;20037;-74
2022/05/20 00:24:27;;;;;;;7.97;5.60;;;14.80;99.90;;;;;;5050917;28;20075;-74
2022/05/20 00:26:53;;;;;;;7.57;6.22;;;14.80;99.90;;;;;;5050413;28;20087;-73
2022/05/20 00:29:19;;;;;;;9.70;6.78;;;14.80;99.90;;;;;;5033519;28;20227;-74
2022/05/20 00:31:45;;;;;;;7.85;6.57;;;14.90;99.90;;;;;;5048697;28;20036;-74
2022/05/20 00:34:11;;;;;;;9.90;7.45;;;14.70;99.90;;;;;;5048937;28;20126;-74
2022/05/20 00:36:36;;;;;;;11.35;7.47;;;14.70;99.90;;;;;;5031139;28;20041;-74
2022/05/20 00:39:02;;;;;;;9.98;7.70;;;14.60;99.90;;;;;;5034056;28;20037;-74
2022/05/20 00:41:28;;;;;;;9.13;7.03;;;14.60;99.90;;;;;;5017722;28;20118;-74
2022/05/20 00:43:54;;;;;;;8.68;6.97;;;14.70;99.90;;;;;;5040863;28;20160;-74
2022/05/20 00:46:26;;;;;;;9.68;8.10;;;14.30;99.90;;;;;;5047887;28;20032;-73
2022/05/20 00:49:03;;;;;;;9.55;8.20;;;14.80;99.90;;;;;;5049947;28;20041;-73
2022/05/20 00:51:37;;;;;;;11.00;8.13;;;14.60;99.90;;;;;;5050042;28;20086;-74
2022/05/20 00:54:13;;;;;;;10.05;7.90;;;14.60;99.90;;;;;;5022963;28;20098;-74
2022/05/20 00:56:47;;;;;;;11.82;8.60;;;14.20;99.90;;;;;;5047675;28;20049;-74
2022/05/20 00:59:17;;;;;;;;;;;14.50;99.90;;;;;;5049170;28;20041;-74
2022/05/20 01:01:47;;;;;;;10.15;8.15;;;14.20;99.90;;;;;;5050354;28;19921;-74
2022/05/20 01:04:19;;;;;;;10.57;8.35;;;14.40;99.90;;;;;;5048047;28;20076;-73
2022/05/20 01:06:44;;;;;;;11.63;8.25;;;14.40;99.90;;;;;;5030089;28;20394;-75
2022/05/20 01:09:10;;;;;;;10.10;7.72;;;14.40;99.90;;;;;;5026403;28;20037;-75
2022/05/20 01:11:38;;;;;;;10.70;8.63;;;14.30;99.90;;;;;;5049555;28;20181;-76
2022/05/20 01:14:04;;;;;;;10.85;8.63;;;14.40;99.90;;;;;;5049481;28;20476;-75
2022/05/20 01:16:32;;;;;;;10.02;7.90;;;14.30;99.90;;;;;;5017136;28;20053;-77
2022/05/20 01:18:57;;;;;;;10.63;7.70;;;14.10;99.90;;;;;;5025351;28;20390;-77
2022/05/20 01:21:23;;;;;;;10.45;8.52;;;14.30;99.90;;;;;;5049922;28;20048;-75
2022/05/20 01:23:49;;;;;;;10.68;7.40;;;14.20;99.90;;;;;;5033951;28;20037;-77
2022/05/20 01:26:15;;;;;;;8.15;7.28;;;14.20;99.90;;;;;;5031745;28;20043;-76
2022/05/20 01:28:41;;;;;;;8.95;7.60;;;14.30;99.90;;;;;;5047897;28;20037;-75
2022/05/20 01:31:12;;;;;;;7.97;7.18;;;14.40;99.90;;;;;;5032988;28;20098;-75
2022/05/20 01:33:44;;;;;;;11.70;7.10;;;14.30;99.90;;;;;;5032308;28;20448;-77
2022/05/20 01:36:16;;;;;;;13.48;7.93;;;14.30;99.90;;;;;;5049218;28;20556;-77
2022/05/20 01:38:42;;;;;;;8.45;7.55;;;14.40;99.90;;;;;;5048752;28;20123;-75
2022/05/20 01:41:21;;;;;;;11.48;7.93;;;14.30;99.90;;;;;;5048347;28;20036;-73
2022/05/20 01:43:56;;;;;;;9.02;8.13;;;14.30;99.90;;;;;;5049841;28;20435;-74
2022/05/20 01:46:55;;;;;;;10.85;8.00;;;14.20;99.90;;;;;;5047989;28;20094;-73
2022/05/20 01:49:34;;;;;;;11.88;8.25;;;14.20;99.90;;;;;;5046574;28;20521;-72
2022/05/20 01:52:18;;;;;;;10.20;9.07;;;14.40;99.90;;;;;;5048931;28;20045;-73
2022/05/20 01:54:52;;;;;;;12.63;9.13;;;14.20;99.90;;;;;;5048161;28;20120;-73
2022/05/20 01:57:22;;;;;;;12.40;9.43;;;14.20;99.90;;;;;;5048573;28;20055;-73
2022/05/20 01:59:53;;;;;;;11.48;10.25;;;14.40;99.90;;;;;;5022926;28;20048;-74
2022/05/20 02:02:31;;;;;;;14.70;9.93;;;14.20;99.90;;;;;;5049316;28;20118;-74
2022/05/20 02:05:05;;;;;;;11.15;9.85;;;14.50;99.90;;;;;;5048459;28;20567;-74
2022/05/20 02:07:35;;;;;;;15.60;10.70;;;14.30;99.90;;;;;;5046571;28;20037;-72
2022/05/20 02:10:04;;;;;;;13.35;9.82;;;14.20;99.90;;;;;;5048118;28;20123;-73
2022/05/20 02:12:37;;;;;;;12.55;10.65;;;14.30;99.90;;;;;;5049346;28;20512;-73
2022/05/20 02:15:27;;;;;;;13.20;10.98;;;14.20;99.90;;;;;;5032907;28;20421;-72
2022/05/20 02:17:57;;;;;;;16.00;11.43;;;14.30;99.90;;;;;;5047616;28;20528;-73
2022/05/20 02:20:31;;;;;;;12.70;11.43;;;14.20;99.90;;;;;;5046986;28;20052;-74
2022/05/20 02:23:02;;;;;;;14.57;10.80;;;14.10;99.90;;;;;;5048715;28;20033;-75
2022/05/20 02:25:31;;;;;;;14.50;11.38;;;14.30;99.90;;;;;;5047549;28;20303;-74
2022/05/20 02:28:06;;;;;;;13.13;10.95;;;14.10;99.90;;;;;;5031930;28;20456;-75
2022/05/20 02:30:33;;;;;;;;;;;14.30;99.90;;;;;;5045817;28;20055;-74
2022/05/20 02:33:09;;;;;;;13.85;10.90;;;14.30;99.90;;;;;;5038904;28;19921;-74
2022/05/20 02:35:36;;;;;;;12.68;11.35;;;14.10;99.90;;;;;;5047346;28;20051;-73
2022/05/20 02:38:22;;;;;;;13.52;10.48;;;14.30;99.90;;;;;;5028905;28;20040;-74
2022/05/20 02:40:51;;;;;;;13.50;10.32;;;14.00;99.90;;;;;;5048823;28;20077;-74
2022/05/20 02:43:18;;;;;;;15.25;10.95;;;14.20;99.90;;;;;;5047415;28;20033;-74
2022/05/20 02:45:46;;;;;;;18.45;11.43;;;14.30;99.90;;;;;;5048171;28;20047;-74
2022/05/20 02:48:15;;;;;;;15.40;11.30;;;14.30;99.90;;;;;;5031917;28;20037;-74
2022/05/20 02:50:41;;;;;;;12.63;10.60;;;14.10;99.90;;;;;;5048288;28;20044;-73
2022/05/20 02:53:07;;;;;;;14.23;12.05;;;14.00;99.90;;;;;;5049123;28;20128;-73
2022/05/20 02:55:33;;;;;;;14.45;11.40;;;14.50;99.90;;;;;;5019253;28;20136;-74
2022/05/20 02:57:58;;;;;;;13.75;11.02;;;14.10;99.90;;;;;;5033644;28;20104;-73
2022/05/20 03:04:09;;;;;;;15.65;12.40;;;14.20;99.90;;;;;;5019431;28;20429;-74
2022/05/20 03:05:55;;;;;;;15.65;11.77;;;14.60;99.90;;;;;;5048711;28;20045;-75
2022/05/20 03:08:20;;;;;;;14.52;11.48;;;14.20;99.90;;;;;;5022711;28;20121;-74
2022/05/20 03:10:47;;;;;;;12.60;10.68;;;14.70;99.90;;;;;;5027752;28;20461;-74
2022/05/20 03:13:13;;;;;;;13.13;11.70;;;14.40;99.90;;;;;;5052866;28;20083;-73
2022/05/20 03:15:39;;;;;;;15.25;12.55;;;14.30;99.90;;;;;;5049542;28;20076;-73
2022/05/20 03:18:07;;;;;;;17.90;13.15;;;14.20;99.90;;;;;;5050153;28;20041;-74
2022/05/20 03:20:34;;;;;;;17.50;12.93;;;14.30;99.90;;;;;;5031642;28;20409;-73
2022/05/20 03:23:00;;;;;;;14.63;12.18;;;14.30;99.90;;;;;;5032690;28;20164;-74
2022/05/20 03:25:26;;;;;;;19.05;13.75;;;14.20;99.90;;;;;;5034665;28;20029;-73
2022/05/20 03:27:52;;;;;;;18.15;13.77;;;14.30;99.90;;;;;;5015950;28;20120;-74
2022/05/20 03:30:19;;;;;;;18.13;14.02;;;14.50;99.90;;;;;;5018899;28;20068;-73
2022/05/20 03:32:44;;;;;;;21.98;14.60;;;14.60;99.90;;;;;;5033472;28;20056;-73
2022/05/20 03:35:11;;;;;;;21.42;13.95;;;14.60;99.90;;;;;;4998612;28;20769;-74
2022/05/20 03:37:37;;;;;;;17.60;13.50;;;14.10;99.90;;;;;;5051927;28;20040;-74
2022/05/20 03:40:04;;;;;;;21.27;13.45;;;14.50;99.90;;;;;;5050469;28;20135;-73
2022/05/20 03:42:30;;;;;;;23.23;14.43;;;14.30;99.90;;;;;;5035576;28;20052;-73
2022/05/20 03:44:56;;;;;;;20.58;14.95;;;14.60;99.90;;;;;;5052005;28;20374;-73
2022/05/20 03:47:21;;;;;;;21.00;14.65;;;14.30;99.90;;;;;;5050668;28;20049;-74
2022/05/20 03:49:47;;;;;;;21.38;15.23;;;14.30;99.90;;;;;;5034267;28;20071;-74
2022/05/20 03:52:13;;;;;;;28.10;16.20;;;14.80;99.90;;;;;;4999931;28;20044;-75
2022/05/20 03:54:40;;;;;;;24.10;15.57;;;14.40;99.90;;;;;;5039975;28;20401;-75
2022/05/20 03:57:06;;;;;;;18.27;15.73;;;14.50;99.90;;;;;;5033053;28;20128;-75
2022/05/20 03:59:39;;;;;;;21.85;16.30;;;14.50;99.90;;;;;;5027516;28;20037;-75
2022/05/20 04:02:11;;;;;;;23.90;16.33;;;14.40;99.90;;;;;;5031895;28;20053;-75
2022/05/20 04:04:45;;;;;;;22.95;16.70;;;14.50;99.90;;;;;;5039615;28;20044;-75
2022/05/20 04:07:14;;;;;;;18.65;15.55;;;15.00;99.90;;;;;;5028158;28;20048;-75
2022/05/20 04:09:41;;;;;;;17.60;15.27;;;14.90;99.90;;;;;;5032251;28;20154;-75
2022/05/20 04:12:11;;;;;;;19.67;15.70;;;15.10;99.90;;;;;;5034513;28;20047;-75
2022/05/20 04:14:37;;;;;;;21.77;15.60;;;14.60;99.90;;;;;;5030512;28;20048;-74
2022/05/20 04:17:04;;;;;;;20.50;15.48;;;15.20;99.90;;;;;;5051282;28;20049;-74
2022/05/20 04:19:31;;;;;;;21.48;15.85;;;14.80;99.90;;;;;;5049407;28;20120;-74
2022/05/20 04:22:01;;;;;;;19.23;14.95;;;15.40;99.90;;;;;;5032023;28;20072;-73
2022/05/20 04:24:26;;;;;;;18.52;14.05;;;15.50;99.90;;;;;;5049646;28;20033;-74
2022/05/20 04:26:52;;;;;;;20.98;15.27;;;15.00;99.90;;;;;;5034650;28;20090;-73
2022/05/20 04:29:19;;;;;;;18.50;14.45;;;15.40;99.90;;;;;;5047490;28;20043;-75
2022/05/20 04:31:47;;;;;;;18.90;14.98;;;15.50;99.90;;;;;;5048029;28;20037;-74
2022/05/20 04:34:13;;;;;;;17.27;14.40;;;15.20;99.90;;;;;;5050035;28;20037;-75
2022/05/20 04:36:39;;;;;;;17.42;14.32;;;15.30;99.90;;;;;;5032263;28;20056;-74
2022/05/20 04:39:06;;;;;;;17.35;14.70;;;15.20;99.90;;;;;;5047910;28;20041;-74
2022/05/20 04:47:03;;;;;;;;;;;15.10;99.90;;;;;;5050262;28;20102;-75
2022/05/20 04:49:30;;;;;;;20.48;14.80;;;15.60;99.90;;;;;;5048718;28;19921;-74
2022/05/20 04:51:57;;;;;;;19.75;14.32;;;15.20;99.90;;;;;;5020897;28;20049;-74
2022/05/20 04:57:08;;;;;;;21.10;16.10;;;15.50;99.90;;;;;;5036662;28;20525;-73
2022/05/20 04:59:41;;;;;;;20.58;15.45;;;15.80;99.90;;;;;;5032811;28;20041;-73
2022/05/20 05:02:07;;;;;;;21.17;15.30;;;15.30;99.90;;;;;;5047688;28;20053;-74
2022/05/20 05:04:33;;;;;;;18.83;15.98;;;15.60;99.90;;;;;;5048902;28;20068;-73
2022/05/20 05:06:59;;;;;;;19.90;16.33;;;16.10;99.90;;;;;;5048995;28;20060;-73
2022/05/20 05:09:25;;;;;;;20.75;15.95;;;15.90;99.90;;;;;;5049305;28;20108;-74
2022/05/20 05:11:52;;;;;;;19.50;16.30;;;15.60;99.90;;;;;;5043522;28;20080;-74
2022/05/20 05:14:17;;;;;;;23.95;16.73;;;15.70;99.90;;;;;;5031742;28;20040;-73
2022/05/20 05:16:43;;;;;;;21.40;16.88;;;16.10;99.90;;;;;;5033421;28;20048;-73
2022/05/20 05:19:11;;;;;;;20.13;15.73;;;15.70;99.90;;;;;;5031926;28;20044;-74
2022/05/20 05:21:37;;;;;;;21.42;16.35;;;16.00;99.90;;;;;;5047775;28;20036;-74
2022/05/20 05:24:04;;;;;;;25.35;18.33;;;15.80;99.90;;;;;;5048739;28;20045;-74
2022/05/20 05:26:32;;;;;;;21.58;16.45;;;15.90;99.90;;;;;;5050051;28;20123;-74
2022/05/20 05:28:59;;;;;;;20.10;16.13;;;16.00;99.90;;;;;;5049020;28;20092;-74
2022/05/20 05:31:26;;;;;;;19.67;17.00;;;16.20;99.90;;;;;;5045940;28;20040;-72
2022/05/20 05:33:53;;;;;;;22.77;17.38;;;16.50;99.90;;;;;;5014867;28;20036;-73
2022/05/20 05:36:19;;;;;;;21.10;17.25;;;15.90;99.90;;;;;;5033729;28;20084;-72
2022/05/20 05:38:46;;;;;;;18.23;16.10;;;15.90;99.90;;;;;;5026415;28;20083;-73
2022/05/20 05:41:12;;;;;;;20.00;16.30;;;16.50;99.90;;;;;;5039112;28;20037;-74
2022/05/20 05:43:38;;;;;;;20.58;16.30;;;16.00;99.90;;;;;;5046448;28;20047;-73
2022/05/20 05:46:05;;;;;;;22.73;16.90;;;16.30;99.90;;;;;;5049056;28;20048;-72
2022/05/20 05:48:31;;;;;;;23.33;16.48;;;16.60;99.90;;;;;;5048888;28;20390;-74
2022/05/20 05:50:56;;;;;;;19.35;14.63;;;16.20;99.90;;;;;;5021594;28;20455;-72
2022/05/20 05:53:26;;;;;;;19.40;14.75;;;16.50;99.90;;;;;;5038505;28;20048;-72
2022/05/20 05:55:58;;;;;;;19.88;14.73;;;16.50;99.90;;;;;;5043846;28;20052;-73
2022/05/20 05:58:26;;;;;;;19.20;15.40;;;16.60;99.90;;;;;;5041993;28;20075;-73
2022/05/20 06:00:53;;;;;;;20.98;15.52;;;16.70;99.90;;;;;;5047481;28;20040;-73
2022/05/20 06:03:18;;;;;;;20.58;15.27;;;17.20;99.90;;;;;;5049100;28;20048;-73
2022/05/20 06:05:45;;;;;;;18.33;15.10;;;16.60;99.90;;;;;;5049390;28;20033;-75
2022/05/20 06:08:11;;;;;;;18.35;14.70;;;16.60;99.90;;;;;;5038048;28;20049;-73
2022/05/20 06:10:37;;;;;;;19.00;15.57;;;17.50;99.90;;;;;;5043107;28;20062;-74
2022/05/20 06:13:03;;;;;;;20.05;15.25;;;17.50;99.90;;;;;;5032773;28;20044;-76
2022/05/20 06:15:29;;;;;;;17.55;14.07;;;17.20;99.90;;;;;;5049217;28;20136;-76
2022/05/20 06:17:56;;;;;;;18.08;14.30;;;16.80;99.90;;;;;;5029007;28;20130;-74
2022/05/20 06:20:23;;;;;;;18.98;14.30;;;17.20;99.90;;;;;;5021140;28;20037;-74
2022/05/20 06:22:49;;;;;;;20.55;14.82;;;17.80;99.90;;;;;;5014509;28;20052;-74
2022/05/20 06:25:16;;;;;;;19.00;14.52;;;17.60;99.90;;;;;;5033739;28;20045;-73
2022/05/20 06:27:42;;;;;;;18.70;13.38;;;18.20;99.90;;;;;;5017449;28;20128;-74
2022/05/20 06:30:11;;;;;;;15.73;12.30;;;17.60;99.90;;;;;;5013238;28;20492;-73
2022/05/20 06:32:37;;;;;;;15.88;12.45;;;17.70;99.90;;;;;;5017292;28;20472;-73
2022/05/20 06:40:44;;;;;;;15.60;11.23;;;17.40;99.90;;;;;;5044705;28;20052;-74
2022/05/20 06:43:16;;;;;;;13.57;10.45;;;17.10;99.90;;;;;;5029687;28;20036;-73
2022/05/20 06:45:45;;;;;;;15.57;10.43;;;16.90;99.90;;;;;;5044578;28;20115;-74
2022/05/20 06:48:11;;;;;;;13.18;8.38;;;17.10;99.90;;;;;;5028927;28;20393;-74
2022/05/20 06:50:38;;;;;;;10.30;7.60;;;17.40;99.90;;;;;;5046947;28;20541;-73
2022/05/20 06:53:05;;;;;;;10.02;8.25;;;17.20;99.90;;;;;;5013235;28;20455;-73
2022/05/20 06:55:31;;;;;;;10.38;7.72;;;16.40;99.90;;;;;;5044676;28;20049;-73
2022/05/20 06:57:57;;;;;;;10.57;8.32;;;16.00;99.90;;;;;;5046810;28;20447;-73
2022/05/20 07:00:23;;;;;;;11.90;9.30;;;16.20;99.90;;;;;;5047216;28;20037;-72
2022/05/20 07:02:48;;;;;;;12.57;7.25;;;16.30;99.90;;;;;;5044458;28;20053;-74
2022/05/20 07:05:14;;;;;;;9.02;6.75;;;15.80;99.90;;;;;;5031994;28;20033;-73
2022/05/20 07:07:40;;;;;;;9.93;7.55;;;15.40;99.90;;;;;;5047874;28;20047;-74
2022/05/20 07:10:08;;;;;;;13.52;8.48;;;15.50;99.90;;;;;;5031361;28;20045;-74
2022/05/20 07:12:34;;;;;;;10.23;8.20;;;15.00;99.90;;;;;;5023253;28;20489;-74
2022/05/20 07:15:00;;;;;;;12.70;9.13;;;15.40;99.90;;;;;;5040516;28;20041;-74
2022/05/20 07:17:27;;;;;;;12.50;8.05;;;15.30;99.90;;;;;;4996679;28;20060;-74
2022/05/20 07:19:53;;;;;;;11.48;8.65;;;15.30;99.90;;;;;;5041852;28;20048;-74
2022/05/20 07:22:19;;;;;;;11.55;8.93;;;15.50;99.90;;;;;;5047693;28;20529;-74
2022/05/20 07:24:45;;;;;;;14.38;10.10;;;15.60;99.90;;;;;;5048418;28;20231;-73
2022/05/20 07:27:11;;;;;;;13.73;8.82;;;15.60;99.90;;;;;;5012767;28;20041;-74
2022/05/20 07:29:38;;;;;;;10.77;8.13;;;15.60;99.90;;;;;;5031399;28;20045;-72
2022/05/20 07:32:04;;;;;;;10.90;7.25;;;16.10;99.90;;;;;;5031583;28;20045;-74
2022/05/20 07:34:30;;;;;;;8.60;5.43;;;15.80;99.90;;;;;;5031538;28;20053;-73
2022/05/20 07:36:55;;;;;;;6.72;4.25;;;15.80;99.90;;;;;;5013485;28;20048;-73
2022/05/20 07:39:21;;;;;;;8.45;5.10;;;15.60;99.90;;;;;;5034467;28;20064;-73
2022/05/20 07:41:48;;;;;;;7.18;4.88;;;15.70;99.90;;;;;;5051785;28;20041;-72
2022/05/20 07:44:14;;;;;;;9.18;6.47;;;15.90;99.90;;;;;;5051069;28;20040;-73
2022/05/20 07:46:40;;;;;;;10.38;6.90;;;15.50;99.90;;;;;;5051958;28;20067;-73
2022/05/20 07:49:06;;;;;;;10.68;7.15;;;15.50;99.90;;;;;;5019411;28;20449;-73
2022/05/20 07:51:32;;;;;;;11.85;6.50;;;15.40;99.90;;;;;;5051079;28;20094;-74
2022/05/20 07:54:06;;;;;;;13.30;6.50;;;15.50;99.90;;;;;;5051447;28;20041;-74
2022/05/20 07:56:35;;;;;;;8.85;5.65;;;15.50;99.90;;;;;;5025933;28;20045;-74
2022/05/20 07:59:15;;;;;;;5.85;4.68;;;15.60;99.90;;;;;;5044525;28;20052;-75
2022/05/20 08:01:45;;;;;;;6.35;5.10;;;15.40;99.90;;;;;;5046387;28;20072;-76
2022/05/20 08:07:09;;;;;;;7.82;5.38;;;15.50;99.90;;;;;;5044541;28;20405;-73
2022/05/20 08:09:35;;;;;;;6.40;4.90;;;15.60;99.90;;;;;;5048245;28;20049;-73
2022/05/20 08:12:01;;;;;;;7.57;4.35;;;15.90;99.90;;;;;;5002696;28;21501;-73
2022/05/20 08:14:28;;;;;;;5.93;4.30;;;16.00;99.90;;;;;;5023819;28;20051;-73
2022/05/20 08:16:57;;;;;;;8.18;5.03;;;15.90;99.90;;;;;;5015979;28;20033;-72
2022/05/20 08:19:23;;;;;;;7.63;4.25;;;15.90;99.90;;;;;;5042468;28;20037;-73
2022/05/20 08:21:49;;;;;;;5.90;4.10;;;16.20;99.90;;;;;;5063685;28;20037;-73
2022/05/20 08:24:14;;;;;;;6.10;3.88;;;16.30;99.90;;;;;;5022048;28;20080;-73
2022/05/20 08:26:40;;;;;;;7.20;4.50;;;16.40;99.90;;;;;;5038887;28;20040;-73
2022/05/20 08:29:06;;;;;;;5.57;3.70;;;16.10;99.90;;;;;;5048516;28;20466;-73
2022/05/20 08:31:33;;;;;;;6.40;4.25;;;16.30;99.90;;;;;;5025039;28;20047;-73
2022/05/20 08:34:00;;;;;;;5.10;3.65;;;16.30;99.90;;;;;;5043905;28;20041;-72
2022/05/20 08:36:26;;;;;;;5.38;3.50;;;16.50;99.90;;;;;;5050095;28;20045;-73
2022/05/20 08:38:51;;;;;;;6.57;3.70;;;16.90;99.90;;;;;;5033737;28;20777;-73
2022/05/20 08:41:32;;;;;;;7.63;3.60;;;16.80;99.90;;;;;;5034379;28;20453;-73
2022/05/20 08:43:58;;;;;;;6.22;3.05;;;17.00;99.90;;;;;;5049814;28;20063;-73
2022/05/20 08:46:24;;;;;;;9.23;3.05;;;16.90;99.90;;;;;;5033551;28;20044;-72
2022/05/20 08:48:53;;;;;;;4.55;2.90;;;16.80;99.90;;;;;;5033281;28;20039;-72
2022/05/20 08:51:21;;;;;;;6.10;3.30;;;16.90;99.90;;;;;;5049328;28;20116;-72
2022/05/20 08:53:48;;;;;;;4.05;3.10;;;17.10;99.90;;;;;;5049977;28;20106;-72
2022/05/20 08:56:19;;;;;;;4.30;2.95;;;17.00;99.90;;;;;;5049449;28;20032;-72
2022/05/20 08:58:58;;;;;;;6.60;3.40;;;17.40;99.90;;;;;;5049306;28;20119;-73
2022/05/20 09:01:41;;;;;;;5.82;3.17;;;17.40;99.90;;;;;;5049596;28;20041;-73
2022/05/20 09:04:12;;;;;;;9.38;3.80;;;17.40;99.90;;;;;;5050157;28;20084;-72
2022/05/20 09:07:00;;;;;;;3.20;2.90;;;17.70;99.90;;;;;;5029128;28;20045;-73
2022/05/20 09:09:28;;;;;;;3.25;2.90;;;17.40;99.90;;;;;;5016141;28;20155;-72
2022/05/20 09:11:56;;;;;;;5.15;2.75;;;17.80;99.90;;;;;;5048929;28;20445;-73
2022/05/20 09:17:22;;;;;;;5.10;3.10;;;17.50;99.90;;;;;;5034110;28;20055;-73
2022/05/20 09:20:00;;;;;;;17.52;3.55;;;17.70;99.90;;;;;;5048083;28;20045;-73
2022/05/20 09:22:36;;;;;;;8.80;3.45;;;18.10;99.90;;;;;;5050325;28;20037;-73
2022/05/20 09:25:25;;;;;;;4.43;2.95;;;18.00;99.90;;;;;;5049979;28;20048;-73
2022/05/20 09:27:54;;;;;;;4.28;2.97;;;18.30;99.90;;;;;;5031133;28;20068;-73
2022/05/20 09:30:25;;;;;;;5.20;2.75;;;18.20;99.90;;;;;;5049689;28;20125;-73
2022/05/20 09:33:09;;;;;;;5.53;2.90;;;17.70;99.90;;;;;;5048953;28;20106;-74
2022/05/20 09:35:35;;;;;;;4.97;2.80;;;18.00;99.90;;;;;;5049244;28;20119;-73
2022/05/20 09:38:28;;;;;;;4.38;2.83;;;18.20;99.90;;;;;;5017175;28;20048;-72
2022/05/20 09:40:54;;;;;;;6.68;2.67;;;18.50;99.90;;;;;;5031682;28;20045;-72
2022/05/20 09:43:35;;;;;;;4.93;2.72;;;18.70;99.90;;;;;;5032801;28;20488;-72
2022/05/20 09:46:03;;;;;;;8.30;2.50;;;18.40;99.90;;;;;;5048908;28;20492;-72
2022/05/20 09:48:50;;;;;;;3.95;2.22;;;18.50;99.90;;;;;;5026771;28;20048;-72
2022/05/20 09:51:20;;;;;;;4.82;2.40;;;18.60;99.90;;;;;;5027590;28;20056;-73
2022/05/20 09:54:10;;;;;;;5.00;2.72;;;18.40;99.90;;;;;;5048945;28;20041;-72
2022/05/20 09:56:41;;;;;;;4.20;2.35;;;18.40;99.90;;;;;;5032130;28;20072;-73
2022/05/20 09:59:19;;;;;;;5.45;2.67;;;18.60;99.90;;;;;;5027851;28;20129;-72
2022/05/20 10:01:57;;;;;;;3.78;2.13;;;18.70;99.90;;;;;;5043585;28;20123;-73
2022/05/20 10:04:52;;;;;;;4.97;2.40;;;18.80;99.90;;;;;;5048780;28;20049;-73
2022/05/20 10:07:37;;;;;;;4.22;2.40;;;18.60;99.90;;;;;;5048096;28;20045;-72
2022/05/20 10:10:11;;;;;;;5.85;2.63;;;18.70;99.90;;;;;;5046971;28;20148;-72
2022/05/20 10:12:39;;;;;;;4.88;2.30;;;18.50;99.90;;;;;;5029448;28;20556;-71
2022/05/20 10:15:26;;;;;;;4.70;2.78;;;18.40;99.90;;;;;;5029091;28;20049;-72
2022/05/20 10:18:10;;;;;;;5.93;3.45;;;18.50;99.90;;;;;;5028293;28;20037;-72
2022/05/20 10:20:50;;;;;;;4.80;3.05;;;18.70;99.90;;;;;;5023082;28;20045;-71
2022/05/20 10:23:37;;;;;;;4.70;3.50;;;18.60;99.90;;;;;;5032220;28;20124;-72
2022/05/20 10:26:18;;;;;;;5.18;3.50;;;18.70;99.90;;;;;;5047639;28;20060;-71
2022/05/20 10:34:47;;;;;;;7.45;3.95;;;18.60;99.90;;;;;;5047142;28;20085;-72
2022/05/20 10:37:19;;;;;;;5.30;3.50;;;18.80;99.90;;;;;;5031753;28;20048;-71
2022/05/20 10:39:54;;;;;;;6.10;3.13;;;18.90;99.90;;;;;;5048180;28;20041;-72
2022/05/20 10:42:44;;;;;;;5.90;3.50;;;18.70;99.90;;;;;;5031648;28;20044;-72
2022/05/20 10:48:34;;;;;;;4.70;3.00;;;18.80;99.90;;;;;;5048638;28;20428;-71
2022/05/20 10:51:27;;;;;;;3.72;2.78;;;18.70;99.90;;;;;;5029836;28;20041;-73
2022/05/20 10:54:02;;;;;;;5.85;3.05;;;18.80;99.90;;;;;;5047948;28;20043;-73
2022/05/20 10:56:33;;;;;;;5.97;3.70;;;18.40;99.90;;;;;;5048283;28;20130;-73
2022/05/20 10:59:13;;;;;;;4.50;3.65;;;18.30;99.90;;;;;;5031491;28;20041;-72
2022/05/20 11:02:06;;;;;;;4.78;4.00;;;18.40;99.90;;;;;;5047155;28;20393;-73
2022/05/20 11:04:49;;;;;;;4.97;3.90;;;18.70;99.90;;;;;;5031448;28;20041;-72
2022/05/20 11:07:40;;;;;;;5.35;3.75;;;18.70;99.90;;;;;;5050013;28;20052;-72
2022/05/20 11:10:17;;;;;;;4.88;3.85;;;18.70;99.90;;;;;;5047410;28;20053;-71
2022/05/20 11:13:00;;;;;;;6.05;3.67;;;19.00;99.90;;;;;;5048458;28;20067;-72
2022/05/20 11:15:58;;;;;;;5.95;4.20;;;18.80;99.90;;;;;;5052567;28;20041;-72
2022/05/20 11:18:36;;;;;;;6.03;4.22;;;18.60;99.90;;;;;;5031667;28;20060;-72
2022/05/20 11:21:33;;;;;;;4.47;3.67;;;18.50;99.90;;;;;;5052155;28;20105;-72
2022/05/20 11:24:09;;;;;;;4.25;3.85;;;18.90;99.90;;;;;;5024790;28;20070;-72
2022/05/20 11:26:41;;;;;;;6.80;4.00;;;18.90;99.90;;;;;;5034208;28;20040;-71
2022/05/20 11:29:32;;;;;;;6.03;4.10;;;19.20;99.90;;;;;;5051775;28;20037;-72
2022/05/20 11:32:07;;;;;;;3.72;3.03;;;19.30;99.90;;;;;;5035294;28;20033;-73
2022/05/20 11:34:42;;;;;;;4.53;3.22;;;19.30;99.90;;;;;;5023456;28;20042;-73
2022/05/20 11:37:32;;;;;;;5.35;3.25;;;19.60;99.90;;;;;;5033441;28;20486;-72
2022/05/20 11:40:05;;;;;;;6.20;4.72;;;20.00;99.90;;;;;;5031045;28;20133;-71
2022/05/20 11:42:55;;;;;;;7.55;4.18;;;19.80;99.90;;;;;;5015824;28;20124;-72
2022/05/20 11:45:44;;;;;;;3.72;3.20;;;20.00;99.90;;;;;;5015662;28;20041;-71
2022/05/20 11:48:23;;;;;;;5.07;3.47;;;19.80;99.90;;;;;;5056949;28;20037;-71
2022/05/20 11:51:23;;;;;;;4.05;3.20;;;19.90;99.90;;;;;;5051678;28;20041;-74
2022/05/20 11:54:08;;;;;;;4.93;3.55;;;20.00;99.90;;;;;;5051667;28;20045;-73
2022/05/20 11:56:46;;;;;;;5.38;4.25;;;19.90;99.90;;;;;;5037361;28;20473;-73
2022/05/20 11:59:22;;;;;;;5.85;4.30;;;19.80;99.90;;;;;;5051774;28;20040;-73
2022/05/20 12:01:51;;;;;;;6.03;4.72;;;20.10;99.90;;;;;;5050825;28;20409;-73
2022/05/20 12:04:19;;;;;;;5.25;4.00;;;20.10;99.90;;;;;;5051793;28;20052;-73
2022/05/20 12:06:52;;;;;;;6.35;4.32;;;20.00;99.90;;;;;;5035432;28;20045;-73
2022/05/20 12:09:41;;;;;;;5.47;4.30;;;20.20;99.90;;;;;;5051614;28;20091;-72
2022/05/20 12:12:27;;;;;;;6.05;4.75;;;20.30;99.90;;;;;;5050354;28;20366;-73
2022/05/20 12:15:02;;;;;;;4.93;3.90;;;20.30;99.90;;;;;;5050961;28;20060;-71
2022/05/20 12:17:35;;;;;;;4.75;4.25;;;20.50;99.90;;;;;;5049031;28;20041;-73
2022/05/20 12:26:05;;;;;;;5.32;4.05;;;20.70;99.90;;;;;;5045835;28;20041;-73
2022/05/20 12:28:37;;;;;;;5.10;3.58;;;20.60;99.90;;;;;;5044642;28;20049;-73
2022/05/20 12:31:12;;;;;;;4.93;3.80;;;20.50;99.90;;;;;;5051027;28;20452;-72
2022/05/20 12:34:00;;;;;;;4.55;3.38;;;20.40;99.90;;;;;;5037056;28;20137;-73
2022/05/20 12:36:28;;;;;;;4.47;3.47;;;20.20;99.90;;;;;;5051267;28;20045;-73
2022/05/20 12:39:06;;;;;;;4.88;4.35;;;20.10;99.90;;;;;;5049175;28;20045;-72
2022/05/20 12:41:48;;;;;;;5.78;4.20;;;20.20;99.90;;;;;;5050830;28;20063;-75
2022/05/20 12:44:17;;;;;;;5.30;4.68;;;20.40;99.90;;;;;;5033781;28;20037;-73
2022/05/20 12:47:05;;;;;;;6.40;4.78;;;20.50;99.90;;;;;;5050291;28;20045;-72
2022/05/20 12:49:47;;;;;;;5.57;4.68;;;20.60;99.90;;;;;;5033132;28;20076;-73
2022/05/20 12:52:27;;;;;;;5.93;4.32;;;20.70;99.90;;;;;;5051014;28;20037;-73
2022/05/20 12:54:56;;;;;;;5.07;4.10;;;21.00;99.90;;;;;;5013530;28;20474;-72
2022/05/20 12:57:24;;;;;;;6.30;4.07;;;21.20;99.90;;;;;;5030845;28;20523;-74
2022/05/20 13:00:08;;;;;;;5.80;3.95;;;21.10;99.90;;;;;;5046001;28;20102;-73
2022/05/20 13:02:40;;;;;;;4.97;3.83;;;20.70;99.90;;;;;;5033292;28;20056;-73
2022/05/20 13:05:24;;;;;;;4.68;4.28;;;20.60;99.90;;;;;;5049654;28;20037;-74
2022/05/20 13:07:53;;;;;;;4.75;4.00;;;20.80;99.90;;;;;;5050187;28;20041;-73
2022/05/20 13:10:35;;;;;;;5.78;4.20;;;20.70;99.90;;;;;;5047830;28;20045;-74
2022/05/20 13:13:05;;;;;;;4.65;4.25;;;20.50;99.90;;;;;;5045730;28;20040;-72
2022/05/20 13:15:31;;;;;;;3.95;3.58;;;20.20;99.90;;;;;;5049639;28;20112;-72
2022/05/20 13:18:02;;;;;;;5.22;4.13;;;19.90;99.90;;;;;;5015262;28;20128;-72
2022/05/20 13:20:31;;;;;;;9.60;3.63;;;19.90;99.90;;;;;;5047838;28;20458;-72
2022/05/20 13:23:02;;;;;;;4.15;3.75;;;20.00;99.90;;;;;;5049930;28;20047;-72
2022/05/20 13:25:29;;;;;;;4.13;3.70;;;19.70;99.90;;;;;;5048162;28;20048;-72
2022/05/20 13:27:56;;;;;;;4.13;3.72;;;19.70;99.90;;;;;;5032968;28;20041;-72
2022/05/20 13:30:30;;;;;;;4.53;4.10;;;19.60;99.90;;;;;;5026314;28;20131;-72
2022/05/20 13:33:09;;;;;;;4.97;4.35;;;19.40;99.90;;;;;;5049029;28;20040;-72
2022/05/20 13:35:59;;;;;;;5.60;4.82;;;19.50;99.90;;;;;;5049456;28;20055;-73